Time;durP1;ratioP1;P1;durP2;ratioP2;P2;SDS_P1;SDS_P2;PMS_P1;PMS_P2;Temp;Humidity;BMP_temperature;BMP_pressure;BME280_temperature;BME280_humidity;BME280_pressure;Samples;Min_cycle;Max_cycle;Signal;HPM_P1;HPM_P2
2021/09/01 00:00:48;;;;;;;;;;;23.30;53.20;;;;;;1588726;73;782;-68
2021/09/01 00:02:50;;;;;;;;;;;23.30;53.30;;;;;;1586299;73;657;-68
2021/09/01 00:04:52;;;;;;;;;;;23.30;53.30;;;;;;1571350;73;741;-69
2021/09/01 00:06:54;;;;;;;;;;;23.30;53.30;;;;;;1574433;73;790;-68
2021/09/01 00:08:56;;;;;;;;;;;23.30;53.40;;;;;;1593778;73;1084;-68
2021/09/01 00:10:57;;;;;;;;;;;23.20;53.30;;;;;;1582483;73;766;-67
2021/09/01 00:13:00;;;;;;;;;;;23.30;53.40;;;;;;1594197;73;867;-67
2021/09/01 00:15:02;;;;;;;;;;;23.20;53.30;;;;;;1591142;73;782;-67
2021/09/01 00:17:04;;;;;;;;;;;23.20;53.30;;;;;;1587473;73;695;-67
2021/09/01 00:19:06;;;;;;;;;;;23.20;53.40;;;;;;1587567;73;1940;-67
2021/09/01 00:21:08;;;;;;;;;;;23.30;53.50;;;;;;1582129;73;707;-67
2021/09/01 00:23:14;;;;;;;;;;;23.20;53.40;;;;;;1597287;73;723;-71
2021/09/01 00:25:13;;;;;;;;;;;23.20;53.60;;;;;;1579900;73;1673;-69
2021/09/01 00:27:15;;;;;;;;;;;23.20;53.60;;;;;;1593249;73;794;-69
2021/09/01 00:29:17;;;;;;;;;;;23.20;53.70;;;;;;1580287;73;1124;-67
2021/09/01 00:31:19;;;;;;;;;;;23.20;53.80;;;;;;1578150;73;745;-67
2021/09/01 00:33:21;;;;;;;;;;;23.20;53.80;;;;;;1580624;73;835;-66
2021/09/01 00:35:23;;;;;;;;;;;23.20;53.70;;;;;;1581220;73;707;-66
2021/09/01 00:37:24;;;;;;;;;;;23.20;53.80;;;;;;1582878;73;717;-67
2021/09/01 00:39:26;;;;;;;;;;;23.20;53.80;;;;;;1580586;73;1947;-68
2021/09/01 00:41:28;;;;;;;;;;;23.30;53.90;;;;;;1590437;73;779;-68
2021/09/01 00:43:30;;;;;;;;;;;23.20;53.80;;;;;;1587905;73;783;-70
2021/09/01 00:45:32;;;;;;;;;;;23.30;53.90;;;;;;1583127;73;891;-69
2021/09/01 00:47:35;;;;;;;;;;;23.20;53.90;;;;;;1586139;73;1159;-67
2021/09/01 00:49:37;;;;;;;;;;;23.30;53.90;;;;;;1583796;73;712;-68
2021/09/01 00:51:40;;;;;;;;;;;23.30;53.90;;;;;;1583257;73;767;-69
2021/09/01 00:53:43;;;;;;;;;;;23.20;53.90;;;;;;1583087;74;724;-66
2021/09/01 00:55:48;;;;;;;;;;;23.20;53.80;;;;;;1587506;73;790;-68
2021/09/01 00:57:50;;;;;;;;;;;23.20;53.70;;;;;;1584646;73;1202;-68
2021/09/01 00:59:52;;;;;;;;;;;23.20;53.70;;;;;;1583005;74;1966;-66
2021/09/01 01:01:54;;;;;;;;;;;23.30;53.90;;;;;;1583653;74;759;-66
2021/09/01 01:03:56;;;;;;;;;;;23.20;53.80;;;;;;1588559;73;712;-67
2021/09/01 01:05:58;;;;;;;;;;;23.30;53.90;;;;;;1587811;73;806;-66
2021/09/01 01:08:00;;;;;;;;;;;23.30;53.90;;;;;;1585253;73;1124;-68
2021/09/01 01:10:02;;;;;;;;;;;23.30;53.90;;;;;;1587452;73;802;-65
2021/09/01 01:12:08;;;;;;;;;;;23.20;53.80;;;;;;1581658;73;772;-69
2021/09/01 01:14:10;;;;;;;;;;;23.20;53.90;;;;;;1579435;74;838;-72
2021/09/01 01:16:18;;;;;;;;;;;23.20;53.80;;;;;;1589602;73;762;-65
2021/09/01 01:18:20;;;;;;;;;;;23.20;53.80;;;;;;1583427;74;1167;-65
2021/09/01 01:20:22;;;;;;;;;;;23.20;53.90;;;;;;1584300;73;1947;-66
2021/09/01 01:22:25;;;;;;;;;;;23.20;53.80;;;;;;1583871;73;771;-65
2021/09/01 01:24:29;;;;;;;;;;;23.20;53.80;;;;;;1587604;73;731;-67
2021/09/01 01:26:31;;;;;;;;;;;23.20;53.80;;;;;;1568426;73;1638;-67
2021/09/01 01:28:32;;;;;;;;;;;23.20;53.80;;;;;;1586772;73;1145;-66
2021/09/01 01:30:34;;;;;;;;;;;23.20;53.80;;;;;;1580508;73;710;-66
2021/09/01 01:32:36;;;;;;;;;;;23.20;53.80;;;;;;1584222;73;791;-66
2021/09/01 01:34:38;;;;;;;;;;;23.20;53.80;;;;;;1589442;73;806;-73
2021/09/01 01:36:40;;;;;;;;;;;23.30;53.90;;;;;;1584068;73;702;-69
2021/09/01 01:38:42;;;;;;;;;;;23.20;53.80;;;;;;1562852;72;218065;-71
2021/09/01 01:40:44;;;;;;;;;;;23.20;53.80;;;;;;1500836;77;1941;-71
2021/09/01 01:42:46;;;;;;;;;;;23.20;53.80;;;;;;1513691;77;835;-71
2021/09/01 01:44:48;;;;;;;;;;;23.20;53.80;;;;;;1502728;77;719;-71
2021/09/01 01:46:50;;;;;;;;;;;23.20;53.70;;;;;;1517278;77;687;-71
2021/09/01 01:48:51;;;;;;;;;;;23.20;53.70;;;;;;1509040;77;1311;-71
2021/09/01 01:50:53;;;;;;;;;;;23.20;53.70;;;;;;1511677;77;725;-70
2021/09/01 01:52:55;;;;;;;;;;;23.20;53.70;;;;;;1507497;77;710;-70
2021/09/01 01:54:57;;;;;;;;;;;23.30;53.80;;;;;;1508463;77;753;-70
2021/09/01 01:56:59;;;;;;;;;;;23.20;53.70;;;;;;1513301;77;709;-70
2021/09/01 01:59:01;;;;;;;;;;;23.30;53.80;;;;;;1508806;77;1131;-70
2021/09/01 02:01:03;;;;;;;;;;;23.20;53.70;;;;;;1518853;77;1941;-71
2021/09/01 02:03:05;;;;;;;;;;;23.30;53.80;;;;;;1511184;77;719;-71
2021/09/01 02:05:07;;;;;;;;;;;23.20;53.70;;;;;;1512189;77;727;-72
2021/09/01 02:07:09;;;;;;;;;;;23.20;53.70;;;;;;1520581;76;782;-72
2021/09/01 02:09:10;;;;;;;;;;;23.20;53.70;;;;;;1510397;76;1112;-70
2021/09/01 02:11:12;;;;;;;;;;;23.20;53.70;;;;;;1520054;76;725;-71
2021/09/01 02:13:14;;;;;;;;;;;23.20;53.80;;;;;;1517199;76;707;-71
2021/09/01 02:15:16;;;;;;;;;;;23.20;53.70;;;;;;1509737;76;680;-72
2021/09/01 02:17:18;;;;;;;;;;;23.30;53.80;;;;;;1521242;76;716;-72
2021/09/01 02:19:20;;;;;;;;;;;23.30;53.90;;;;;;1526391;76;767;-72
2021/09/01 02:21:22;;;;;;;;;;;23.20;53.80;;;;;;1517738;76;1945;-70
2021/09/01 02:23:24;;;;;;;;;;;23.20;53.70;;;;;;1516456;76;733;-71
2021/09/01 02:25:27;;;;;;;;;;;23.20;53.70;;;;;;1514881;76;716;-71
2021/09/01 02:27:29;;;;;;;;;;;23.30;53.80;;;;;;1512562;76;1147;-72
2021/09/01 02:29:30;;;;;;;;;;;23.20;53.70;;;;;;1522549;76;757;-74
2021/09/01 02:31:32;;;;;;;;;;;23.20;53.80;;;;;;1528233;76;673;-71
2021/09/01 02:33:34;;;;;;;;;;;23.30;53.90;;;;;;1515743;76;701;-71
2021/09/01 02:35:36;;;;;;;;;;;23.20;53.90;;;;;;1519441;76;715;-70
2021/09/01 02:37:38;;;;;;;;;;;23.20;53.90;;;;;;1515526;76;1152;-70
2021/09/01 02:39:40;;;;;;;;;;;23.30;54.00;;;;;;1533288;75;778;-70
2021/09/01 02:41:42;;;;;;;;;;;23.20;53.90;;;;;;1552351;75;1943;-70
2021/09/01 02:43:44;;;;;;;;;;;23.20;53.90;;;;;;1552918;75;712;-71
2021/09/01 02:45:45;;;;;;;;;;;23.20;53.90;;;;;;1568723;75;775;-70
2021/09/01 02:47:47;;;;;;;;;;;23.20;53.90;;;;;;1546466;75;1190;-70
2021/09/01 02:49:49;;;;;;;;;;;23.20;53.90;;;;;;1532682;75;777;-70
2021/09/01 02:51:51;;;;;;;;;;;23.20;54.00;;;;;;1551941;75;709;-70
2021/09/01 02:53:53;;;;;;;;;;;23.20;54.00;;;;;;1548675;75;745;-70
2021/09/01 02:55:55;;;;;;;;;;;23.20;54.00;;;;;;1560978;75;774;-70
2021/09/01 02:57:57;;;;;;;;;;;23.30;54.20;;;;;;1553847;75;1124;-70
2021/09/01 02:59:59;;;;;;;;;;;23.20;54.10;;;;;;1549618;75;1940;-71
2021/09/01 03:02:01;;;;;;;;;;;23.30;54.10;;;;;;1549080;75;742;-70
2021/09/01 03:04:03;;;;;;;;;;;23.30;54.20;;;;;;1551496;75;727;-70
2021/09/01 03:06:04;;;;;;;;;;;23.30;54.20;;;;;;1538451;75;678;-70
2021/09/01 03:08:07;;;;;;;;;;;23.20;54.00;;;;;;1544008;75;1254;-70
2021/09/01 03:10:09;;;;;;;;;;;23.20;54.00;;;;;;1558172;75;723;-72
2021/09/01 03:12:11;;;;;;;;;;;23.30;54.20;;;;;;1534080;75;743;-71
2021/09/01 03:14:13;;;;;;;;;;;23.20;54.20;;;;;;1558406;75;730;-71
2021/09/01 03:16:15;;;;;;;;;;;23.20;54.30;;;;;;1541460;75;739;-73
2021/09/01 03:18:17;;;;;;;;;;;23.20;54.20;;;;;;1554351;75;1141;-73
2021/09/01 03:20:19;;;;;;;;;;;23.20;54.10;;;;;;1533594;75;1929;-71
2021/09/01 03:22:21;;;;;;;;;;;23.20;54.00;;;;;;1542426;75;709;-71
2021/09/01 03:24:23;;;;;;;;;;;23.20;54.00;;;;;;1532475;75;689;-71
2021/09/01 03:26:28;;;;;;;;;;;23.30;54.10;;;;;;1538689;75;703;-71
2021/09/01 03:28:28;;;;;;;;;;;23.20;54.10;;;;;;1546034;75;1278;-72
2021/09/01 03:30:30;;;;;;;;;;;23.20;54.00;;;;;;1542387;75;657;-73
2021/09/01 03:32:32;;;;;;;;;;;23.20;54.00;;;;;;1527209;75;734;-72
2021/09/01 03:34:34;;;;;;;;;;;23.20;54.00;;;;;;1541364;75;728;-72
2021/09/01 03:36:35;;;;;;;;;;;23.20;54.10;;;;;;1532928;75;717;-72
2021/09/01 03:38:37;;;;;;;;;;;23.20;54.00;;;;;;1549877;75;1117;-73
2021/09/01 03:40:39;;;;;;;;;;;23.20;54.10;;;;;;1560999;75;1938;-72
2021/09/01 03:42:41;;;;;;;;;;;23.10;54.00;;;;;;1558535;75;663;-72
2021/09/01 03:44:43;;;;;;;;;;;23.20;54.10;;;;;;1555548;75;697;-75
2021/09/01 03:46:45;;;;;;;;;;;23.20;54.10;;;;;;1552743;75;729;-72
2021/09/01 03:48:47;;;;;;;;;;;23.10;54.10;;;;;;1553002;75;1153;-72
2021/09/01 03:50:49;;;;;;;;;;;23.10;54.20;;;;;;1561205;75;719;-72
2021/09/01 03:52:50;;;;;;;;;;;23.20;54.00;;;;;;1560693;75;614;-72
2021/09/01 03:54:52;;;;;;;;;;;23.10;54.10;;;;;;1559096;75;707;-73
2021/09/01 03:56:54;;;;;;;;;;;23.10;54.10;;;;;;1562056;75;719;-71
2021/09/01 03:58:56;;;;;;;;;;;23.20;54.10;;;;;;1554531;75;1124;-76
2021/09/01 04:00:58;;;;;;;;;;;23.20;54.10;;;;;;1552196;75;1946;-73
2021/09/01 04:03:00;;;;;;;;;;;23.10;54.20;;;;;;1558020;75;728;-74
2021/09/01 04:05:02;;;;;;;;;;;23.10;54.20;;;;;;1557241;75;771;-73
2021/09/01 04:07:04;;;;;;;;;;;23.10;54.20;;;;;;1560910;75;663;-74
2021/09/01 04:09:06;;;;;;;;;;;23.10;54.20;;;;;;1559833;75;1116;-74
2021/09/01 04:11:08;;;;;;;;;;;23.10;54.20;;;;;;1561475;75;639;-73
2021/09/01 04:13:09;;;;;;;;;;;23.20;54.20;;;;;;1561678;75;728;-73
2021/09/01 04:15:12;;;;;;;;;;;23.10;54.20;;;;;;1558608;75;601;-73
2021/09/01 04:17:13;;;;;;;;;;;23.10;54.20;;;;;;1557017;75;747;-74
2021/09/01 04:19:15;;;;;;;;;;;23.10;54.20;;;;;;1559095;75;1070;-75
2021/09/01 04:21:17;;;;;;;;;;;23.10;54.20;;;;;;1554505;75;1946;-73
2021/09/01 04:23:19;;;;;;;;;;;23.10;54.20;;;;;;1552056;75;695;-73
2021/09/01 04:25:21;;;;;;;;;;;23.10;54.20;;;;;;1558314;75;756;-73
2021/09/01 04:27:23;;;;;;;;;;;23.10;54.10;;;;;;1557579;75;1121;-73
2021/09/01 04:29:25;;;;;;;;;;;23.10;54.10;;;;;;1557768;75;685;-73
2021/09/01 04:31:26;;;;;;;;;;;23.10;54.20;;;;;;1561754;75;750;-72
2021/09/01 04:33:28;;;;;;;;;;;23.10;54.20;;;;;;1554494;75;800;-72
2021/09/01 04:35:30;;;;;;;;;;;23.10;54.20;;;;;;1554805;75;730;-73
2021/09/01 04:37:32;;;;;;;;;;;23.10;54.20;;;;;;1562994;74;1132;-72
2021/09/01 04:39:34;;;;;;;;;;;23.10;54.30;;;;;;1564246;74;709;-72
2021/09/01 04:41:36;;;;;;;;;;;23.10;54.30;;;;;;1564484;74;1934;-71
2021/09/01 04:43:38;;;;;;;;;;;23.10;54.30;;;;;;1564734;74;694;-72
2021/09/01 04:45:40;;;;;;;;;;;23.10;54.20;;;;;;1559681;74;695;-72
2021/09/01 04:47:41;;;;;;;;;;;23.10;54.20;;;;;;1541648;76;1154;-72
2021/09/01 04:49:43;;;;;;;;;;;23.10;54.10;;;;;;1538181;76;733;-72
2021/09/01 04:51:45;;;;;;;;;;;23.10;54.20;;;;;;1545674;76;734;-72
2021/09/01 04:53:47;;;;;;;;;;;23.10;54.10;;;;;;1541614;76;723;-73
2021/09/01 04:55:49;;;;;;;;;;;23.10;54.10;;;;;;1543107;76;716;-74
2021/09/01 04:57:51;;;;;;;;;;;23.10;54.20;;;;;;1532251;76;1214;-73
2021/09/01 04:59:53;;;;;;;;;;;23.10;54.30;;;;;;1536068;76;743;-72
2021/09/01 05:01:55;;;;;;;;;;;23.00;54.20;;;;;;1548365;76;1947;-72
2021/09/01 05:03:56;;;;;;;;;;;23.10;54.30;;;;;;1553418;76;703;-72
2021/09/01 05:05:58;;;;;;;;;;;23.10;54.20;;;;;;1539091;76;705;-73
2021/09/01 05:08:00;;;;;;;;;;;23.00;54.20;;;;;;1543047;76;1167;-73
2021/09/01 05:10:02;;;;;;;;;;;23.00;54.20;;;;;;1544634;76;734;-73
2021/09/01 05:12:04;;;;;;;;;;;23.10;54.30;;;;;;1547360;76;709;-73
2021/09/01 05:14:06;;;;;;;;;;;23.10;54.40;;;;;;1541656;76;695;-72
2021/09/01 05:16:08;;;;;;;;;;;23.00;54.20;;;;;;1546058;76;720;-72
2021/09/01 05:18:10;;;;;;;;;;;23.00;54.30;;;;;;1543908;76;1146;-73
2021/09/01 05:20:12;;;;;;;;;;;23.00;54.20;;;;;;1545114;76;791;-73
2021/09/01 05:22:15;;;;;;;;;;;23.00;54.30;;;;;;1532265;76;1942;-73
2021/09/01 05:24:19;;;;;;;;;;;23.00;54.40;;;;;;1533959;76;1119;-72
2021/09/01 05:26:21;;;;;;;;;;;23.00;54.40;;;;;;1542062;76;983;-75
2021/09/01 05:28:27;;;;;;;;;;;23.00;54.40;;;;;;1537389;76;1158;-71
2021/09/01 05:30:28;;;;;;;;;;;23.00;54.40;;;;;;1541572;76;722;-71
2021/09/01 05:32:30;;;;;;;;;;;23.00;54.50;;;;;;1520277;76;727;-71
2021/09/01 05:34:32;;;;;;;;;;;23.00;54.40;;;;;;1532357;76;721;-72
2021/09/01 05:36:34;;;;;;;;;;;23.00;54.40;;;;;;1536371;76;745;-73
2021/09/01 05:38:36;;;;;;;;;;;23.00;54.50;;;;;;1528363;76;1150;-72
2021/09/01 05:40:38;;;;;;;;;;;23.00;54.50;;;;;;1537518;76;721;-72
2021/09/01 05:42:40;;;;;;;;;;;23.00;54.50;;;;;;1529480;76;1945;-72
2021/09/01 05:44:42;;;;;;;;;;;22.90;54.50;;;;;;1535338;76;722;-71
2021/09/01 05:46:44;;;;;;;;;;;23.00;54.50;;;;;;1545386;76;712;-71
2021/09/01 05:48:46;;;;;;;;;;;23.00;54.50;;;;;;1532328;76;1174;-71
2021/09/01 05:50:53;;;;;;;;;;;22.90;54.40;;;;;;1529182;76;756;-78
2021/09/01 05:52:55;;;;;;;;;;;23.00;54.80;;;;;;1529735;76;741;-73
2021/09/01 05:55:00;;;;;;;;;;;23.00;54.40;;;;;;1556995;74;719;-74
2021/09/01 05:57:02;;;;;;;;;;;23.10;54.40;;;;;;1547051;75;1170;-75
2021/09/01 05:59:05;;;;;;;;;;;23.10;54.40;;;;;;1537058;76;1103;-73
2021/09/01 06:01:07;;;;;;;;;;;23.10;54.40;;;;;;1531068;76;1927;-72
2021/09/01 06:03:14;;;;;;;;;;;23.00;54.30;;;;;;1550212;76;696;-73
2021/09/01 06:05:15;;;;;;;;;;;23.10;54.30;;;;;;1518623;76;1049;-71
2021/09/01 06:07:18;;;;;;;;;;;23.00;54.20;;;;;;1539116;76;711;-72
2021/09/01 06:09:20;;;;;;;;;;;23.10;54.30;;;;;;1539086;76;767;-71
2021/09/01 06:11:23;;;;;;;;;;;23.10;54.30;;;;;;1543031;76;739;-72
2021/09/01 06:13:25;;;;;;;;;;;23.00;54.20;;;;;;1529962;76;690;-71
2021/09/01 06:15:27;;;;;;;;;;;23.00;54.20;;;;;;1544180;76;739;-70
2021/09/01 06:17:29;;;;;;;;;;;23.00;54.20;;;;;;1538592;76;1130;-71
2021/09/01 06:19:31;;;;;;;;;;;23.00;54.30;;;;;;1541663;76;710;-72
2021/09/01 06:21:34;;;;;;;;;;;23.10;54.60;;;;;;1548111;76;1925;-71
2021/09/01 06:23:36;;;;;;;;;;;23.00;54.50;;;;;;1536872;76;698;-71
2021/09/01 06:25:38;;;;;;;;;;;23.00;54.40;;;;;;1541280;76;717;-71
2021/09/01 06:27:40;;;;;;;;;;;23.10;54.50;;;;;;1546849;76;1136;-71
2021/09/01 06:29:41;;;;;;;;;;;23.00;54.40;;;;;;1537516;76;737;-71
2021/09/01 06:31:44;;;;;;;;;;;23.00;54.60;;;;;;1534531;76;723;-71
2021/09/01 06:33:45;;;;;;;;;;;23.00;54.50;;;;;;1535483;76;720;-71
2021/09/01 06:35:50;;;;;;;;;;;23.00;54.70;;;;;;1537794;76;731;-71
2021/09/01 06:37:52;;;;;;;;;;;23.10;55.00;;;;;;1528483;76;1175;-72
2021/09/01 06:39:54;;;;;;;;;;;23.10;55.30;;;;;;1546247;76;735;-72
2021/09/01 06:41:56;;;;;;;;;;;23.20;55.60;;;;;;1534557;76;1948;-72
2021/09/01 06:43:58;;;;;;;;;;;23.20;55.40;;;;;;1525721;76;692;-72
2021/09/01 06:46:00;;;;;;;;;;;23.20;55.20;;;;;;1538187;76;703;-74
2021/09/01 06:48:02;;;;;;;;;;;23.20;55.20;;;;;;1546877;76;1158;-72
2021/09/01 06:50:04;;;;;;;;;;;23.20;55.00;;;;;;1531982;76;609;-74
2021/09/01 06:52:05;;;;;;;;;;;23.10;54.70;;;;;;1547369;76;754;-74
2021/09/01 06:54:07;;;;;;;;;;;23.20;54.50;;;;;;1541969;76;703;-72
2021/09/01 06:56:09;;;;;;;;;;;23.20;54.40;;;;;;1535078;76;740;-72
2021/09/01 06:58:15;;;;;;;;;;;23.20;54.30;;;;;;1540027;76;1083;-74
2021/09/01 07:00:18;;;;;;;;;;;23.30;54.10;;;;;;1532094;76;735;-72
2021/09/01 07:02:20;;;;;;;;;;;23.20;53.90;;;;;;1540645;76;1938;-73
2021/09/01 07:04:22;;;;;;;;;;;23.20;53.70;;;;;;1539330;76;722;-72
2021/09/01 07:06:24;;;;;;;;;;;23.30;53.60;;;;;;1534106;76;743;-73
2021/09/01 07:08:27;;;;;;;;;;;23.30;53.50;;;;;;1541535;75;1125;-73
2021/09/01 07:10:29;;;;;;;;;;;23.20;53.40;;;;;;1537337;76;707;-75
2021/09/01 07:12:31;;;;;;;;;;;23.30;53.30;;;;;;1542818;76;708;-76
2021/09/01 07:14:33;;;;;;;;;;;23.30;53.20;;;;;;1534416;76;782;-73
2021/09/01 07:16:35;;;;;;;;;;;23.20;53.10;;;;;;1547327;76;698;-75
2021/09/01 07:18:37;;;;;;;;;;;23.30;53.20;;;;;;1544461;76;1173;-73
2021/09/01 07:20:39;;;;;;;;;;;23.30;53.20;;;;;;1537880;76;758;-73
2021/09/01 07:22:41;;;;;;;;;;;23.30;53.40;;;;;;1528797;76;1939;-74
2021/09/01 07:24:43;;;;;;;;;;;23.30;53.40;;;;;;1534693;76;726;-75
2021/09/01 07:26:44;;;;;;;;;;;23.30;53.60;;;;;;1540085;76;672;-76
2021/09/01 07:28:46;;;;;;;;;;;23.30;53.70;;;;;;1540818;76;1116;-74
2021/09/01 07:30:48;;;;;;;;;;;23.30;53.80;;;;;;1534942;76;800;-75
2021/09/01 07:32:50;;;;;;;;;;;23.40;53.90;;;;;;1530776;76;743;-75
2021/09/01 07:34:52;;;;;;;;;;;23.40;53.90;;;;;;1535568;76;748;-74
2021/09/01 07:36:54;;;;;;;;;;;23.40;54.00;;;;;;1535981;76;962;-73
2021/09/01 07:38:56;;;;;;;;;;;23.40;54.00;;;;;;1538065;76;1154;-73
2021/09/01 07:40:58;;;;;;;;;;;23.50;54.20;;;;;;1535848;76;725;-76
2021/09/01 07:42:59;;;;;;;;;;;23.40;53.90;;;;;;1532074;76;1948;-73
2021/09/01 07:45:02;;;;;;;;;;;23.50;54.20;;;;;;1534486;76;721;-76
2021/09/01 07:47:04;;;;;;;;;;;23.50;54.00;;;;;;1528302;76;746;-73
2021/09/01 07:49:06;;;;;;;;;;;23.50;54.00;;;;;;1532937;76;1155;-73
2021/09/01 07:51:08;;;;;;;;;;;23.50;53.90;;;;;;1528416;76;711;-78
2021/09/01 07:53:10;;;;;;;;;;;23.50;53.90;;;;;;1547915;74;225421;-76
2021/09/01 07:55:12;;;;;;;;;;;23.50;53.80;;;;;;1556239;74;750;-74
2021/09/01 07:57:14;;;;;;;;;;;23.50;53.70;;;;;;1562939;74;744;-74
2021/09/01 07:59:16;;;;;;;;;;;23.50;53.70;;;;;;1554852;74;1216;-76
2021/09/01 08:01:17;;;;;;;;;;;23.50;53.60;;;;;;1557194;74;749;-79
2021/09/01 08:03:19;;;;;;;;;;;23.50;53.60;;;;;;1565250;74;1925;-72
2021/09/01 08:05:21;;;;;;;;;;;23.60;53.60;;;;;;1558673;74;803;-79
2021/09/01 08:07:23;;;;;;;;;;;23.50;53.60;;;;;;1556999;74;739;-73
2021/09/01 08:09:25;;;;;;;;;;;23.50;53.60;;;;;;1554631;74;1178;-74
2021/09/01 08:11:27;;;;;;;;;;;23.60;53.70;;;;;;1560085;75;728;-74
2021/09/01 08:13:29;;;;;;;;;;;23.60;53.90;;;;;;1552214;74;737;-77
2021/09/01 08:15:31;;;;;;;;;;;23.60;54.10;;;;;;1563212;75;761;-82
2021/09/01 08:17:32;;;;;;;;;;;23.60;54.40;;;;;;1553855;75;669;-77
2021/09/01 08:19:34;;;;;;;;;;;23.70;54.70;;;;;;1554558;75;1129;-74
2021/09/01 08:21:36;;;;;;;;;;;23.70;54.90;;;;;;1564620;75;725;-70
2021/09/01 08:23:38;;;;;;;;;;;23.80;55.50;;;;;;1553505;75;1942;-72
2021/09/01 08:25:40;;;;;;;;;;;23.90;56.00;;;;;;1562609;74;707;-68
2021/09/01 08:27:43;;;;;;;;;;;23.90;55.80;;;;;;1560125;75;773;-73
2021/09/01 08:29:45;;;;;;;;;;;24.00;55.40;;;;;;1563554;75;1139;-72
2021/09/01 08:31:47;;;;;;;;;;;24.00;54.90;;;;;;1566051;74;739;-71
2021/09/01 08:33:49;;;;;;;;;;;24.00;55.50;;;;;;1564748;74;711;-68
2021/09/01 08:35:51;;;;;;;;;;;24.10;55.70;;;;;;1553410;75;809;-70
2021/09/01 08:37:53;;;;;;;;;;;24.10;55.80;;;;;;1553012;75;826;-71
2021/09/01 08:39:55;;;;;;;;;;;24.00;55.60;;;;;;1550484;75;1118;-72
2021/09/01 08:41:57;;;;;;;;;;;24.00;55.60;;;;;;1560770;75;701;-69
2021/09/01 08:43:59;;;;;;;;;;;24.00;55.30;;;;;;1557177;75;778;-72
2021/09/01 08:46:02;;;;;;;;;;;24.10;55.70;;;;;;1547505;75;795;-71
2021/09/01 08:48:04;;;;;;;;;;;24.00;55.50;;;;;;1555079;74;735;-70
2021/09/01 08:50:07;;;;;;;;;;;24.10;55.50;;;;;;1550093;74;1104;-70
2021/09/01 08:52:08;;;;;;;;;;;24.10;54.90;;;;;;1560818;74;750;-75
2021/09/01 08:54:10;;;;;;;;;;;24.20;55.20;;;;;;1565262;74;762;-70
2021/09/01 08:56:12;;;;;;;;;;;24.20;55.20;;;;;;1566240;74;749;-70
2021/09/01 08:58:14;;;;;;;;;;;24.20;55.00;;;;;;1556066;75;1138;-69
2021/09/01 09:00:16;;;;;;;;;;;24.20;54.70;;;;;;1554242;74;754;-69
2021/09/01 09:02:20;;;;;;;;;;;24.20;54.70;;;;;;1553209;74;1938;-76
2021/09/01 09:04:22;;;;;;;;;;;24.20;54.40;;;;;;1556647;74;1809;-75
2021/09/01 09:06:24;;;;;;;;;;;24.20;54.40;;;;;;1555796;74;689;-70
2021/09/01 09:08:26;;;;;;;;;;;24.20;54.40;;;;;;1560251;74;1181;-70
2021/09/01 09:10:36;;;;;;;;;;;24.20;54.40;;;;;;1532762;76;1215;-72
2021/09/01 09:12:37;;;;;;;;;;;24.30;54.50;;;;;;1558706;75;1859;-70
2021/09/01 09:14:40;;;;;;;;;;;24.30;54.40;;;;;;1556797;75;722;-69
2021/09/01 09:16:43;;;;;;;;;;;24.40;54.20;;;;;;1568824;74;716;-72
2021/09/01 09:18:45;;;;;;;;;;;24.30;54.20;;;;;;1557060;75;1129;-70
2021/09/01 09:20:47;;;;;;;;;;;24.30;54.00;;;;;;1554023;74;720;-70
2021/09/01 09:22:49;;;;;;;;;;;24.40;54.00;;;;;;1556343;74;1936;-72
2021/09/01 09:25:09;;;;;;;;;;;24.40;54.00;;;;;;1531104;76;807;-75
2021/09/01 09:27:10;;;;;;;;;;;24.30;53.90;;;;;;1549190;75;779;-71
2021/09/01 09:29:13;;;;;;;;;;;24.40;53.90;;;;;;1553431;75;1189;-70
2021/09/01 09:31:15;;;;;;;;;;;24.30;53.90;;;;;;1556260;75;726;-78
2021/09/01 09:33:21;;;;;;;;;;;24.30;53.90;;;;;;1561798;74;796;-75
2021/09/01 09:35:23;;;;;;;;;;;24.40;53.90;;;;;;1563809;74;686;-73
2021/09/01 09:37:25;;;;;;;;;;;24.40;53.80;;;;;;1555552;75;806;-70
2021/09/01 09:39:46;;;;;;;;;;;24.40;53.80;;;;;;1559016;75;1141;-71
2021/09/01 09:41:50;;;;;;;;;;;24.40;53.70;;;;;;1557079;74;824;-72
2021/09/01 09:43:52;;;;;;;;;;;24.30;53.70;;;;;;1553001;74;1908;-77
2021/09/01 09:46:06;;;;;;;;;;;24.40;53.70;;;;;;1550470;74;821;-71
2021/09/01 09:48:08;;;;;;;;;;;24.40;53.60;;;;;;1547894;75;1130;-76
2021/09/01 09:50:10;;;;;;;;;;;24.30;53.60;;;;;;1543847;74;994;-72
2021/09/01 09:52:15;;;;;;;;;;;24.30;53.60;;;;;;1547624;74;728;-75
2021/09/01 09:54:18;;;;;;;;;;;24.30;53.50;;;;;;1546144;74;724;-70
2021/09/01 09:56:26;;;;;;;;;;;24.30;53.40;;;;;;1548092;75;783;-70
2021/09/01 09:58:28;;;;;;;;;;;24.30;53.50;;;;;;1552432;75;1154;-70
2021/09/01 10:00:30;;;;;;;;;;;24.20;53.30;;;;;;1549022;74;760;-70
2021/09/01 10:02:32;;;;;;;;;;;24.20;53.30;;;;;;1547889;75;1934;-71
2021/09/01 10:04:34;;;;;;;;;;;24.20;53.30;;;;;;1548179;75;746;-70
2021/09/01 10:06:35;;;;;;;;;;;24.20;53.30;;;;;;1531374;76;732;-72
2021/09/01 10:08:37;;;;;;;;;;;24.20;53.30;;;;;;1561698;74;1192;-73
2021/09/01 10:10:39;;;;;;;;;;;24.20;53.40;;;;;;1552549;74;775;-75
2021/09/01 10:12:42;;;;;;;;;;;24.20;53.40;;;;;;1562546;74;745;-70
2021/09/01 10:14:44;;;;;;;;;;;24.20;53.30;;;;;;1563938;74;790;-70
2021/09/01 10:16:48;;;;;;;;;;;24.20;53.30;;;;;;1567267;74;874;-74
2021/09/01 10:18:51;;;;;;;;;;;24.20;53.20;;;;;;1558611;74;1128;-70
2021/09/01 10:20:53;;;;;;;;;;;24.20;53.20;;;;;;1565011;74;1576;-70
2021/09/01 10:22:59;;;;;;;;;;;24.20;53.20;;;;;;1563941;74;1942;-70
2021/09/01 10:25:01;;;;;;;;;;;24.20;53.20;;;;;;1566122;75;734;-70
2021/09/01 10:27:04;;;;;;;;;;;24.20;53.20;;;;;;1560318;75;702;-71
2021/09/01 10:29:06;;;;;;;;;;;24.20;53.20;;;;;;1561158;75;1186;-67
2021/09/01 10:31:12;;;;;;;;;;;24.20;53.20;;;;;;1561708;75;728;-70
2021/09/01 10:33:16;;;;;;;;;;;24.20;53.20;;;;;;1568237;74;707;-70
2021/09/01 10:35:19;;;;;;;;;;;24.20;53.10;;;;;;1561269;75;1979;-71
2021/09/01 10:37:37;;;;;;;;;;;24.20;53.10;;;;;;1561615;74;758;-76
2021/09/01 10:39:39;;;;;;;;;;;24.10;53.20;;;;;;1561442;75;1094;-73
2021/09/01 10:41:41;;;;;;;;;;;24.10;53.10;;;;;;1566036;74;762;-74
2021/09/01 10:43:48;;;;;;;;;;;24.20;53.10;;;;;;1575088;74;1947;-72
2021/09/01 10:45:51;;;;;;;;;;;24.10;53.10;;;;;;1559001;75;1146;-71
2021/09/01 10:48:02;;;;;;;;;;;24.10;53.00;;;;;;1563634;75;729;-70
2021/09/01 10:50:07;;;;;;;;;;;24.10;53.10;;;;;;1555822;75;1200;-71
2021/09/01 10:52:07;;;;;;;;;;;24.10;53.10;;;;;;1565611;75;1855;-70
2021/09/01 10:54:28;;;;;;;;;;;24.10;53.10;;;;;;1564049;75;758;-70
2021/09/01 10:56:30;;;;;;;;;;;24.00;52.90;;;;;;1565901;74;720;-70
2021/09/01 10:58:33;;;;;;;;;;;24.10;53.10;;;;;;1557824;75;1150;-68
2021/09/01 11:00:38;;;;;;;;;;;24.00;52.90;;;;;;1564068;75;757;-72
2021/09/01 11:02:42;;;;;;;;;;;24.00;52.90;;;;;;1564556;74;788;-70
2021/09/01 11:04:50;;;;;;;;;;;24.00;53.00;;;;;;1566056;74;1936;-72
2021/09/01 11:06:52;;;;;;;;;;;24.00;52.90;;;;;;1561822;74;775;-70
2021/09/01 11:09:02;;;;;;;;;;;24.00;53.00;;;;;;1560664;75;1152;-70
2021/09/01 11:11:04;;;;;;;;;;;24.00;53.00;;;;;;1560964;74;801;-70
2021/09/01 11:13:06;;;;;;;;;;;23.90;53.00;;;;;;1562954;75;831;-69
2021/09/01 11:15:09;;;;;;;;;;;24.00;53.00;;;;;;1559884;74;703;-69
2021/09/01 11:17:12;;;;;;;;;;;24.00;53.00;;;;;;1560651;75;679;-69
2021/09/01 11:19:13;;;;;;;;;;;24.00;53.00;;;;;;1561725;74;1109;-74
2021/09/01 11:21:15;;;;;;;;;;;24.00;53.00;;;;;;1567354;74;749;-70
2021/09/01 11:23:17;;;;;;;;;;;24.00;53.10;;;;;;1569040;74;1934;-68
2021/09/01 11:25:19;;;;;;;;;;;23.90;53.10;;;;;;1573459;74;761;-68
2021/09/01 11:27:23;;;;;;;;;;;23.90;53.00;;;;;;1567867;75;765;-68
2021/09/01 11:29:34;;;;;;;;;;;23.90;53.10;;;;;;1561435;74;1145;-70
2021/09/01 11:31:45;;;;;;;;;;;23.90;53.00;;;;;;1561498;75;791;-75
2021/09/01 11:33:39;;;;;;;;;;;23.90;53.00;;;;;;1563797;74;1628;-69
2021/09/01 11:35:41;;;;;;;;;;;23.90;53.10;;;;;;1572292;74;761;-69
2021/09/01 11:37:43;;;;;;;;;;;23.90;53.20;;;;;;1569570;74;803;-64
2021/09/01 11:39:46;;;;;;;;;;;23.90;53.30;;;;;;1563713;74;1094;-69
2021/09/01 11:41:50;;;;;;;;;;;23.90;53.40;;;;;;1569096;74;1306;-68
2021/09/01 11:44:02;;;;;;;;;;;23.90;53.40;;;;;;1555467;74;1935;-68
2021/09/01 11:46:04;;;;;;;;;;;23.90;53.30;;;;;;1554291;75;763;-68
2021/09/01 11:48:06;;;;;;;;;;;23.90;53.30;;;;;;1559852;75;787;-71
2021/09/01 11:50:08;;;;;;;;;;;23.80;53.10;;;;;;1554143;74;718;-71
2021/09/01 11:52:10;;;;;;;;;;;23.90;53.10;;;;;;1569924;74;697;-68
2021/09/01 11:54:12;;;;;;;;;;;23.80;53.10;;;;;;1566337;74;799;-69
2021/09/01 11:56:14;;;;;;;;;;;23.90;53.10;;;;;;1555613;74;721;-69
2021/09/01 11:58:18;;;;;;;;;;;23.80;53.00;;;;;;1557199;75;1156;-70
2021/09/01 12:00:19;;;;;;;;;;;23.80;53.10;;;;;;1576857;74;757;-68
2021/09/01 12:02:22;;;;;;;;;;;23.80;53.10;;;;;;1567128;74;738;-68
2021/09/01 12:04:24;;;;;;;;;;;23.90;53.10;;;;;;1566893;74;1933;-68
2021/09/01 12:06:36;;;;;;;;;;;23.90;53.10;;;;;;1556777;74;812;-69
2021/09/01 12:08:41;;;;;;;;;;;23.80;53.10;;;;;;1565118;74;1167;-68
2021/09/01 12:10:44;;;;;;;;;;;23.80;53.10;;;;;;1570139;74;771;-70